Time;durP1;ratioP1;P1;durP2;ratioP2;P2;SDS_P1;SDS_P2;PMS_P1;PMS_P2;Temp;Humidity;BMP_temperature;BMP_pressure;BME280_temperature;BME280_humidity;BME280_pressure;Samples;Min_cycle;Max_cycle;Signal;HPM_P1;HPM_P2
2022/08/24 00:02:18;;;;;;;4.45;2.20;;;20.00;99.90;;;;;;4984541;28;20124;-63
2022/08/24 00:04:43;;;;;;;5.85;2.28;;;20.10;99.90;;;;;;4985631;28;20533;-63
2022/08/24 00:07:09;;;;;;;3.80;2.50;;;20.00;99.90;;;;;;4985415;28;20101;-63
2022/08/24 00:09:35;;;;;;;6.88;2.03;;;19.90;99.90;;;;;;4986812;28;20120;-63
2022/08/24 00:12:03;;;;;;;5.30;2.58;;;19.80;99.90;;;;;;4980856;28;20077;-63
2022/08/24 00:14:29;;;;;;;5.00;2.30;;;19.70;99.90;;;;;;4985763;28;20033;-63
2022/08/24 00:16:56;;;;;;;6.20;2.67;;;19.80;99.90;;;;;;4992901;28;20084;-63
2022/08/24 00:19:22;;;;;;;5.10;2.60;;;19.80;99.90;;;;;;4988452;28;20053;-63
2022/08/24 00:21:48;;;;;;;4.65;2.20;;;19.80;99.90;;;;;;4986849;28;20635;-63
2022/08/24 00:24:14;;;;;;;4.43;2.22;;;19.80;99.90;;;;;;4987718;28;20084;-63
2022/08/24 00:26:39;;;;;;;4.43;2.22;;;19.80;99.90;;;;;;4985572;28;20036;-63
2022/08/24 00:29:05;;;;;;;5.68;2.58;;;19.80;99.90;;;;;;4987181;28;20038;-63
2022/08/24 00:31:31;;;;;;;6.22;2.30;;;19.70;99.90;;;;;;4989935;28;20626;-63
2022/08/24 00:33:57;;;;;;;3.78;2.15;;;19.60;99.90;;;;;;4987766;28;20604;-63
2022/08/24 00:36:23;;;;;;;6.22;2.25;;;19.70;99.90;;;;;;4986377;28;20049;-63
2022/08/24 00:38:49;;;;;;;5.80;2.05;;;19.60;99.90;;;;;;4984484;28;20023;-63
2022/08/24 00:41:16;;;;;;;4.75;2.10;;;19.60;99.90;;;;;;4985800;28;20382;-62
2022/08/24 00:43:57;;;;;;;5.40;2.30;;;19.60;99.90;;;;;;4988068;28;20123;-63
2022/08/24 00:46:29;;;;;;;3.55;2.13;;;19.70;99.90;;;;;;4986173;28;20032;-63
2022/08/24 00:49:03;;;;;;;4.80;2.20;;;19.60;99.90;;;;;;4980162;28;20183;-63
2022/08/24 00:51:35;;;;;;;4.90;2.35;;;19.60;99.90;;;;;;4983275;28;20034;-63
2022/08/24 00:54:07;;;;;;;4.13;2.05;;;19.60;99.90;;;;;;4982643;28;20049;-63
2022/08/24 00:56:40;;;;;;;3.30;2.35;;;19.60;99.90;;;;;;4983145;28;20036;-63
2022/08/24 00:59:15;;;;;;;3.72;2.20;;;19.60;99.90;;;;;;4981699;28;20486;-63
2022/08/24 01:01:43;;;;;;;4.80;2.13;;;19.50;99.90;;;;;;4986945;28;20235;-63
2022/08/24 01:04:15;;;;;;;4.45;2.50;;;19.50;99.90;;;;;;4986680;28;20490;-63
2022/08/24 01:06:41;;;;;;;4.57;2.60;;;19.50;99.90;;;;;;4985355;28;20058;-63
2022/08/24 01:09:07;;;;;;;5.78;2.47;;;19.50;99.90;;;;;;4986444;28;20454;-63
2022/08/24 01:11:33;;;;;;;5.72;2.10;;;19.50;99.90;;;;;;4981277;28;20105;-62
2022/08/24 01:13:59;;;;;;;4.60;2.30;;;19.40;99.90;;;;;;4985765;28;20058;-63
2022/08/24 01:19:36;;;;;;;6.47;2.20;;;19.50;99.90;;;;;;4985131;28;20396;-62
2022/08/24 01:22:29;;;;;;;3.85;2.08;;;19.40;99.90;;;;;;4984995;28;20478;-62
2022/08/24 01:24:55;;;;;;;4.23;2.27;;;19.20;99.90;;;;;;4986174;28;20462;-63
2022/08/24 01:27:21;;;;;;;3.38;2.25;;;19.30;99.90;;;;;;4983279;28;20336;-63
2022/08/24 01:29:48;;;;;;;3.85;2.20;;;19.30;99.90;;;;;;4984520;28;20080;-63
2022/08/24 01:32:15;;;;;;;4.68;2.30;;;19.30;99.90;;;;;;5000814;28;20528;-62
2022/08/24 01:34:40;;;;;;;3.72;2.42;;;19.30;99.90;;;;;;4983906;28;20237;-63
2022/08/24 01:37:10;;;;;;;5.13;2.47;;;19.30;99.90;;;;;;4983527;28;20057;-63
2022/08/24 01:39:42;;;;;;;4.63;2.30;;;19.20;99.90;;;;;;4985178;28;20084;-62
2022/08/24 01:42:08;;;;;;;4.10;2.57;;;19.10;99.90;;;;;;4981842;28;20034;-62
2022/08/24 01:44:36;;;;;;;4.80;2.40;;;19.20;99.90;;;;;;4982164;28;20033;-63
2022/08/24 01:47:04;;;;;;;3.17;2.05;;;19.20;99.90;;;;;;4985674;28;20081;-63
2022/08/24 01:49:32;;;;;;;4.88;2.10;;;19.20;99.90;;;;;;4985489;28;20029;-63
2022/08/24 01:51:58;;;;;;;4.55;2.22;;;19.10;99.90;;;;;;4977853;28;20030;-63
2022/08/24 01:54:25;;;;;;;5.65;2.55;;;19.00;99.90;;;;;;4983903;28;20034;-63
2022/08/24 01:56:51;;;;;;;4.72;2.30;;;19.00;99.90;;;;;;4986131;28;20734;-63
2022/08/24 01:59:18;;;;;;;5.28;2.20;;;19.00;99.90;;;;;;4984351;28;20022;-63
2022/08/24 02:01:50;;;;;;;6.00;2.60;;;19.10;99.90;;;;;;4984197;28;20053;-62
2022/08/24 02:04:16;;;;;;;3.55;2.28;;;19.00;99.90;;;;;;4986131;28;20064;-63
2022/08/24 02:06:43;;;;;;;4.50;2.35;;;19.10;99.90;;;;;;4986041;28;20053;-63
2022/08/24 02:09:09;;;;;;;3.45;2.25;;;19.10;99.90;;;;;;4983560;28;20046;-63
2022/08/24 02:11:36;;;;;;;6.75;2.63;;;19.00;99.90;;;;;;4987864;28;20038;-62
2022/08/24 02:14:03;;;;;;;4.22;2.45;;;19.00;99.90;;;;;;4985106;28;20034;-63
2022/08/24 02:16:28;;;;;;;4.65;2.42;;;18.90;99.90;;;;;;4983160;28;20773;-62
2022/08/24 02:18:55;;;;;;;6.20;2.60;;;18.90;99.90;;;;;;4984884;28;20078;-63
2022/08/24 02:21:21;;;;;;;3.97;2.55;;;18.90;99.90;;;;;;4984658;28;20057;-62
2022/08/24 02:23:46;;;;;;;4.93;2.35;;;18.90;99.90;;;;;;4983084;28;20092;-63
2022/08/24 02:26:12;;;;;;;7.20;2.67;;;18.80;99.90;;;;;;4982318;28;20498;-62
2022/08/24 02:28:39;;;;;;;4.00;2.67;;;18.60;99.90;;;;;;4984180;28;20453;-63
2022/08/24 02:31:06;;;;;;;5.07;2.60;;;18.70;99.90;;;;;;4985800;28;20133;-63
2022/08/24 02:33:33;;;;;;;5.10;2.25;;;18.80;99.90;;;;;;4983477;28;20046;-63
2022/08/24 02:35:59;;;;;;;5.88;2.45;;;18.80;99.90;;;;;;4984340;28;20629;-63
2022/08/24 02:38:25;;;;;;;5.53;2.58;;;18.90;99.90;;;;;;4987112;28;20022;-63
2022/08/24 02:40:50;;;;;;;4.75;2.65;;;18.90;99.90;;;;;;4984673;28;20421;-63
2022/08/24 02:43:16;;;;;;;2.83;2.30;;;18.80;99.90;;;;;;4982804;28;20023;-63
2022/08/24 02:45:44;;;;;;;4.55;2.72;;;18.80;99.90;;;;;;4984656;28;20018;-63
2022/08/24 02:48:10;;;;;;;5.30;2.80;;;18.80;99.90;;;;;;4984284;28;20032;-62
2022/08/24 02:50:41;;;;;;;4.45;2.63;;;18.90;99.90;;;;;;4986223;28;20698;-63
2022/08/24 02:53:07;;;;;;;5.57;2.50;;;18.80;99.90;;;;;;4976286;28;20062;-62
2022/08/24 02:55:33;;;;;;;4.40;2.30;;;18.80;99.90;;;;;;4985867;28;20041;-63
2022/08/24 02:57:59;;;;;;;4.32;2.50;;;18.70;99.90;;;;;;4983955;28;20022;-63
2022/08/24 03:00:26;;;;;;;4.53;2.50;;;18.70;99.90;;;;;;4981390;28;20042;-62
2022/08/24 03:02:53;;;;;;;5.10;2.55;;;18.70;99.90;;;;;;4988806;28;20482;-63
2022/08/24 03:05:19;;;;;;;4.38;2.40;;;18.70;99.90;;;;;;4980206;28;20031;-63
2022/08/24 03:07:45;;;;;;;7.80;2.53;;;18.70;99.90;;;;;;4983259;28;20553;-63
2022/08/24 03:10:11;;;;;;;4.55;2.15;;;18.70;99.90;;;;;;4982621;28;20059;-62
2022/08/24 03:12:37;;;;;;;4.25;2.58;;;18.70;99.90;;;;;;4989990;28;20114;-62
2022/08/24 03:15:05;;;;;;;6.68;2.65;;;18.70;99.90;;;;;;4988232;28;20030;-62
2022/08/24 03:17:32;;;;;;;4.95;2.50;;;18.60;99.90;;;;;;4988901;28;20046;-62
2022/08/24 03:19:59;;;;;;;4.97;2.70;;;18.60;99.90;;;;;;4984432;28;20068;-62
2022/08/24 03:22:25;;;;;;;4.72;2.70;;;18.60;99.90;;;;;;4985788;28;20069;-63
2022/08/24 03:24:51;;;;;;;7.30;3.20;;;18.60;99.90;;;;;;4988530;28;20400;-62
2022/08/24 03:27:16;;;;;;;5.70;3.08;;;18.60;99.90;;;;;;4993147;28;20029;-63
2022/08/24 03:29:42;;;;;;;5.05;2.80;;;18.50;99.90;;;;;;4989914;28;20026;-62
2022/08/24 03:32:08;;;;;;;8.13;2.80;;;18.40;99.90;;;;;;4987101;28;20030;-62
2022/08/24 03:34:33;;;;;;;3.88;3.05;;;18.50;99.90;;;;;;4981079;28;20027;-62
2022/08/24 03:36:59;;;;;;;5.80;3.22;;;18.40;99.90;;;;;;4985950;28;20031;-62
2022/08/24 03:39:24;;;;;;;6.35;2.85;;;18.40;99.90;;;;;;4986059;28;20761;-63
2022/08/24 03:41:50;;;;;;;7.43;3.42;;;18.40;99.90;;;;;;4986562;28;20035;-62
2022/08/24 03:44:16;;;;;;;4.40;3.05;;;18.30;99.90;;;;;;4987120;28;20486;-63
2022/08/24 03:46:41;;;;;;;7.28;3.25;;;18.40;99.90;;;;;;4988037;28;20110;-62
2022/08/24 03:49:08;;;;;;;3.97;2.70;;;18.30;99.90;;;;;;4984991;28;20018;-62
2022/08/24 03:51:35;;;;;;;6.20;2.85;;;18.30;99.90;;;;;;4985032;28;20038;-63
2022/08/24 03:54:02;;;;;;;6.28;3.10;;;18.30;99.90;;;;;;4981992;28;20041;-63
2022/08/24 03:56:28;;;;;;;7.43;3.08;;;18.30;99.90;;;;;;4986746;28;20464;-63
2022/08/24 03:58:54;;;;;;;5.13;3.20;;;18.30;99.90;;;;;;4990286;28;20109;-63
2022/08/24 04:01:20;;;;;;;4.80;3.10;;;18.20;99.90;;;;;;4986152;28;20050;-63
2022/08/24 04:03:47;;;;;;;6.45;2.83;;;18.30;99.90;;;;;;4987989;28;20662;-63
2022/08/24 04:06:16;;;;;;;7.10;3.20;;;18.30;99.90;;;;;;4984985;28;20386;-63
2022/08/24 04:08:42;;;;;;;5.25;3.53;;;18.20;99.90;;;;;;4986647;28;20010;-63
2022/08/24 04:11:14;;;;;;;5.82;3.60;;;18.20;99.90;;;;;;4986464;28;20034;-62
2022/08/24 04:13:40;;;;;;;6.25;3.60;;;18.20;99.90;;;;;;4986149;28;20461;-63
2022/08/24 04:16:16;;;;;;;6.55;3.17;;;18.10;99.90;;;;;;4985346;28;20586;-62
2022/08/24 04:18:42;;;;;;;6.72;3.40;;;18.20;99.90;;;;;;4987549;28;20042;-63
2022/08/24 04:21:20;;;;;;;6.65;3.58;;;18.10;99.90;;;;;;4984746;28;20048;-63
2022/08/24 04:23:46;;;;;;;6.38;3.92;;;18.20;99.90;;;;;;4988662;28;20034;-63
2022/08/24 04:26:12;;;;;;;7.78;4.00;;;18.10;99.90;;;;;;4984572;28;20034;-62
2022/08/24 04:28:38;;;;;;;8.60;3.90;;;18.20;99.90;;;;;;4981497;28;20073;-62
2022/08/24 04:31:05;;;;;;;6.38;4.18;;;18.20;99.90;;;;;;4981979;28;20038;-63
2022/08/24 04:33:31;;;;;;;6.75;4.25;;;18.20;99.90;;;;;;4990646;28;20034;-63
2022/08/24 04:35:57;;;;;;;7.35;4.28;;;18.10;99.90;;;;;;4986429;28;20100;-63
2022/08/24 04:38:22;;;;;;;7.47;4.30;;;17.90;99.90;;;;;;4982462;28;20038;-63
2022/08/24 04:40:48;;;;;;;9.38;4.57;;;18.00;99.90;;;;;;4979257;28;20045;-62
2022/08/24 04:43:15;;;;;;;7.05;4.32;;;18.00;99.90;;;;;;4984955;28;20097;-63
2022/08/24 04:45:42;;;;;;;8.95;4.50;;;18.10;99.90;;;;;;4985601;28;20018;-62
2022/08/24 04:48:09;;;;;;;7.93;4.80;;;18.00;99.90;;;;;;4982349;28;20019;-62
2022/08/24 04:50:37;;;;;;;8.52;4.47;;;18.10;99.90;;;;;;4979856;28;20052;-61
2022/08/24 04:53:03;;;;;;;9.60;5.07;;;18.30;99.90;;;;;;4981909;28;20478;-62
2022/08/24 04:55:29;;;;;;;9.18;4.65;;;18.20;99.90;;;;;;4981306;28;20497;-63
2022/08/24 04:57:54;;;;;;;8.95;3.97;;;18.20;99.90;;;;;;4984981;28;20026;-62
2022/08/24 05:00:20;;;;;;;8.05;3.70;;;18.10;99.90;;;;;;4981061;28;20507;-62
2022/08/24 05:02:46;;;;;;;8.77;3.67;;;18.10;99.90;;;;;;4985515;28;20331;-62
2022/08/24 05:05:11;;;;;;;7.43;3.33;;;18.10;99.90;;;;;;4986803;28;20034;-63
2022/08/24 05:07:37;;;;;;;8.90;3.65;;;18.20;99.90;;;;;;4985714;28;20094;-63
2022/08/24 05:10:04;;;;;;;4.68;3.50;;;18.10;99.90;;;;;;4985234;28;20018;-63
2022/08/24 05:12:30;;;;;;;6.35;3.70;;;18.10;99.90;;;;;;4982628;28;20863;-62
2022/08/24 05:14:57;;;;;;;6.70;3.80;;;18.10;99.90;;;;;;4985158;28;20034;-63
2022/08/24 05:17:24;;;;;;;5.22;3.75;;;18.10;99.90;;;;;;4979169;28;20026;-62
2022/08/24 05:19:50;;;;;;;7.07;4.00;;;18.00;99.90;;;;;;4981554;28;20119;-63
2022/08/24 05:22:16;;;;;;;7.28;4.30;;;18.10;99.90;;;;;;4985937;28;20109;-63
2022/08/24 05:24:41;;;;;;;7.68;4.10;;;18.20;99.90;;;;;;4986072;28;20041;-62
2022/08/24 05:27:07;;;;;;;8.20;4.30;;;18.30;99.90;;;;;;4990568;28;20038;-62
2022/08/24 05:29:33;;;;;;;7.15;4.43;;;18.30;99.90;;;;;;4981666;28;20018;-62
2022/08/24 05:31:59;;;;;;;9.52;4.60;;;18.40;99.90;;;;;;4981160;28;20371;-62
2022/08/24 05:34:25;;;;;;;6.55;4.30;;;18.40;99.90;;;;;;4984011;28;20053;-62
2022/08/24 05:36:51;;;;;;;9.52;4.10;;;18.40;99.90;;;;;;4985287;28;20863;-63
2022/08/24 05:39:17;;;;;;;6.35;4.40;;;18.70;99.90;;;;;;4979677;28;20058;-63
2022/08/24 05:41:43;;;;;;;8.05;4.10;;;18.80;99.90;;;;;;4984663;28;20537;-63
2022/08/24 05:44:09;;;;;;;7.63;4.30;;;18.80;99.90;;;;;;4980825;28;20474;-62
2022/08/24 05:46:35;;;;;;;10.38;4.50;;;18.70;99.90;;;;;;4986497;28;20027;-62
2022/08/24 05:49:01;;;;;;;8.10;4.50;;;18.60;99.90;;;;;;4986769;28;20033;-62
2022/08/24 05:51:28;;;;;;;11.00;4.45;;;18.60;99.90;;;;;;4977239;28;20030;-62
2022/08/24 05:53:55;;;;;;;7.60;4.53;;;18.50;99.90;;;;;;4984426;28;20034;-62
2022/08/24 05:56:21;;;;;;;9.57;5.22;;;18.60;99.90;;;;;;4983624;28;20084;-62
2022/08/24 05:58:47;;;;;;;8.15;4.45;;;18.60;99.90;;;;;;4986086;28;20048;-62
2022/08/24 06:01:21;;;;;;;8.20;4.80;;;18.60;99.90;;;;;;4984456;28;20113;-62
2022/08/24 06:03:49;;;;;;;10.18;5.00;;;18.70;99.90;;;;;;4982614;28;20037;-62
2022/08/24 06:06:16;;;;;;;9.13;4.93;;;18.80;99.90;;;;;;4978232;28;20496;-61
2022/08/24 06:08:45;;;;;;;11.52;5.40;;;19.00;99.90;;;;;;4981540;28;20061;-62
2022/08/24 06:11:11;;;;;;;13.02;4.97;;;19.20;99.90;;;;;;4985064;28;20027;-63
2022/08/24 06:13:37;;;;;;;8.20;5.18;;;19.50;99.90;;;;;;4979570;28;20026;-62
2022/08/24 06:16:10;;;;;;;8.70;5.75;;;19.60;99.90;;;;;;4982271;28;20359;-62
2022/08/24 06:18:36;;;;;;;10.10;6.35;;;19.70;99.90;;;;;;4981531;28;20042;-62
2022/08/24 06:21:11;;;;;;;13.18;6.40;;;19.90;99.90;;;;;;4977193;28;20037;-62
2022/08/24 06:23:37;;;;;;;12.55;5.70;;;20.00;99.90;;;;;;4976410;28;20041;-63
2022/08/24 06:28:49;;;;;;;8.10;5.20;;;20.30;99.90;;;;;;4981187;28;20121;-62
2022/08/24 06:31:15;;;;;;;10.45;5.63;;;20.40;99.90;;;;;;4982914;28;20054;-62
2022/08/24 06:33:41;;;;;;;12.88;6.30;;;20.50;99.90;;;;;;4980312;28;20057;-61
2022/08/24 06:36:07;;;;;;;12.07;6.63;;;20.80;99.90;;;;;;4981402;28;20030;-62
2022/08/24 06:38:32;;;;;;;13.93;7.43;;;21.00;99.90;;;;;;4984021;28;20069;-62
2022/08/24 06:40:58;;;;;;;16.05;7.03;;;21.00;99.90;;;;;;4982664;28;20029;-62
2022/08/24 06:43:24;;;;;;;10.70;6.65;;;21.00;99.90;;;;;;4982690;28;20034;-61
2022/08/24 06:45:50;;;;;;;13.05;7.22;;;21.00;99.90;;;;;;4985440;28;20078;-62
2022/08/24 06:48:17;;;;;;;13.68;6.95;;;21.00;99.90;;;;;;4983841;28;20501;-61
2022/08/24 06:50:42;;;;;;;12.35;6.50;;;21.10;99.90;;;;;;4985447;28;20018;-62
2022/08/24 06:53:08;;;;;;;14.93;6.55;;;21.30;99.90;;;;;;4986168;28;20045;-62
2022/08/24 06:55:34;;;;;;;14.18;7.28;;;21.40;99.90;;;;;;4986777;28;21468;-62
2022/08/24 06:58:01;;;;;;;12.90;6.55;;;21.50;99.90;;;;;;4988663;28;20126;-62
2022/08/24 07:00:27;;;;;;;10.80;6.53;;;21.60;99.90;;;;;;4979344;28;20030;-62
2022/08/24 07:02:52;;;;;;;13.65;7.25;;;21.70;99.90;;;;;;4985903;28;20046;-62
2022/08/24 07:05:18;;;;;;;14.65;5.80;;;21.70;99.90;;;;;;4984456;28;20548;-62
2022/08/24 07:07:43;;;;;;;20.17;5.72;;;21.80;99.90;;;;;;4987607;28;20041;-61
2022/08/24 07:10:09;;;;;;;12.15;4.97;;;21.90;99.90;;;;;;4987555;28;20030;-60
2022/08/24 07:12:36;;;;;;;9.60;4.68;;;22.10;99.90;;;;;;4986205;28;20517;-61
2022/08/24 07:15:03;;;;;;;11.90;4.80;;;22.20;99.90;;;;;;4987445;28;20091;-62
2022/08/24 07:17:29;;;;;;;13.15;4.70;;;22.20;99.90;;;;;;4986156;28;20397;-61
2022/08/24 07:19:54;;;;;;;12.48;4.80;;;22.30;99.90;;;;;;4987000;28;20036;-61
2022/08/24 07:22:20;;;;;;;10.27;4.93;;;22.40;99.90;;;;;;4988349;28;20461;-62
2022/08/24 07:24:46;;;;;;;12.10;4.68;;;22.50;99.90;;;;;;4983066;28;20031;-62
2022/08/24 07:27:12;;;;;;;8.40;4.50;;;22.70;99.90;;;;;;4986400;28;20026;-62
2022/08/24 07:29:38;;;;;;;10.65;4.60;;;22.80;99.90;;;;;;4986328;28;20125;-62
2022/08/24 07:32:04;;;;;;;12.35;4.20;;;22.70;99.90;;;;;;4986875;28;20183;-62
2022/08/24 07:34:31;;;;;;;9.60;4.45;;;22.70;99.90;;;;;;4985153;28;20055;-62
2022/08/24 07:36:59;;;;;;;111.97;90.93;;;22.70;99.90;;;;;;4983243;28;20706;-61
2022/08/24 07:39:25;;;;;;;25.00;19.10;;;22.80;99.90;;;;;;4983574;28;20790;-62
2022/08/24 07:41:50;;;;;;;7.80;4.25;;;22.90;99.90;;;;;;4987250;28;20066;-62
2022/08/24 07:44:16;;;;;;;11.48;4.43;;;22.90;99.90;;;;;;4983489;28;20124;-62
2022/08/24 07:46:42;;;;;;;8.23;4.30;;;23.10;99.90;;;;;;5000261;28;20143;-62
2022/08/24 07:49:09;;;;;;;11.68;4.30;;;23.20;99.90;;;;;;4987457;28;20033;-62
2022/08/24 07:51:35;;;;;;;9.40;4.00;;;23.20;99.90;;;;;;4984115;28;20437;-62
2022/08/24 07:54:02;;;;;;;10.35;4.30;;;23.30;99.90;;;;;;4984160;28;20023;-62
2022/08/24 07:56:28;;;;;;;10.85;4.10;;;23.40;99.90;;;;;;4984724;28;20039;-62
2022/08/24 07:58:54;;;;;;;10.45;4.50;;;23.50;99.90;;;;;;4987230;28;20717;-62
2022/08/24 08:01:21;;;;;;;11.80;4.45;;;23.50;99.90;;;;;;4983561;28;20605;-62
2022/08/24 08:03:47;;;;;;;11.13;4.00;;;23.60;99.90;;;;;;4986622;28;20022;-62
2022/08/24 08:06:12;;;;;;;8.57;4.00;;;23.70;99.90;;;;;;4986535;28;20042;-62
2022/08/24 08:08:39;;;;;;;9.73;3.90;;;23.70;99.90;;;;;;4987106;28;20538;-62
2022/08/24 08:11:06;;;;;;;8.10;3.40;;;23.90;99.90;;;;;;4989748;28;20101;-62
2022/08/24 08:13:33;;;;;;;7.93;3.40;;;23.80;99.90;;;;;;4985041;28;20026;-62
2022/08/24 08:16:00;;;;;;;9.25;3.80;;;24.10;99.90;;;;;;4989306;28;20084;-62
2022/08/24 08:18:27;;;;;;;7.78;3.63;;;24.00;99.90;;;;;;4999827;28;20181;-62
2022/08/24 08:20:53;;;;;;;15.40;4.07;;;24.10;99.90;;;;;;4984425;28;20027;-62
2022/08/24 08:26:05;;;;;;;6.97;3.33;;;24.20;99.90;;;;;;4986526;28;20129;-62
2022/08/24 08:28:31;;;;;;;9.13;3.70;;;24.40;99.90;;;;;;4981172;28;20037;-62
2022/08/24 08:31:01;;;;;;;8.73;3.67;;;24.40;99.90;;;;;;4986042;28;20536;-62
2022/08/24 08:33:27;;;;;;;7.72;3.47;;;24.50;99.90;;;;;;4983942;28;20033;-62
2022/08/24 08:36:01;;;;;;;9.50;3.47;;;24.40;99.90;;;;;;4986688;28;20031;-62
2022/08/24 08:38:27;;;;;;;11.02;3.92;;;24.50;99.90;;;;;;4978398;28;20023;-62
2022/08/24 08:41:10;;;;;;;9.25;4.18;;;24.60;99.90;;;;;;4980059;28;20033;-62
2022/08/24 08:43:43;;;;;;;8.63;3.55;;;24.70;99.90;;;;;;4981506;28;20098;-62
2022/08/24 08:46:14;;;;;;;9.10;3.10;;;24.60;99.90;;;;;;4985635;28;20066;-62
2022/08/24 08:48:59;;;;;;;12.90;4.53;;;24.80;99.90;;;;;;4984884;28;20594;-62
2022/08/24 08:51:43;;;;;;;10.68;3.80;;;24.80;99.90;;;;;;4981359;28;20049;-62
2022/08/24 08:54:35;;;;;;;8.82;3.45;;;25.10;99.90;;;;;;4985066;28;20034;-62
2022/08/24 08:57:17;;;;;;;8.77;3.40;;;25.20;99.90;;;;;;4985410;28;20038;-62
2022/08/24 08:59:49;;;;;;;8.67;3.87;;;25.20;99.90;;;;;;4984160;28;20155;-62
2022/08/24 09:02:51;;;;;;;10.27;5.28;;;25.40;99.90;;;;;;4979617;28;20091;-62
2022/08/24 09:05:50;;;;;;;6.97;4.30;;;25.30;99.90;;;;;;4981992;28;20386;-62
2022/08/24 09:08:28;;;;;;;15.93;4.05;;;25.40;99.90;;;;;;4985406;28;20026;-62
2022/08/24 09:11:14;;;;;;;10.68;3.40;;;25.40;99.90;;;;;;4982324;28;20034;-62
2022/08/24 09:14:18;;;;;;;12.32;3.92;;;25.50;99.90;;;;;;4994689;28;20030;-62
2022/08/24 09:17:14;;;;;;;11.90;4.00;;;25.60;99.90;;;;;;4985210;28;20553;-62
2022/08/24 09:19:56;;;;;;;11.98;4.30;;;25.60;99.90;;;;;;4985038;28;20038;-62
2022/08/24 09:22:21;;;;;;;15.43;5.07;;;25.60;99.90;;;;;;4981881;28;20342;-62
2022/08/24 09:24:59;;;;;;;18.65;4.82;;;25.70;99.90;;;;;;4986387;28;20023;-62
2022/08/24 09:27:59;;;;;;;14.43;5.05;;;26.00;99.90;;;;;;4982388;28;20030;-62
2022/08/24 09:30:31;;;;;;;15.52;4.40;;;25.90;99.90;;;;;;4983940;28;20053;-62
2022/08/24 09:33:15;;;;;;;11.18;4.90;;;25.90;99.90;;;;;;4985685;28;20034;-62
2022/08/24 09:35:50;;;;;;;14.73;5.30;;;26.10;99.90;;;;;;4978742;28;20039;-62
2022/08/24 09:38:53;;;;;;;14.93;5.78;;;26.30;99.90;;;;;;4987924;28;20038;-62
2022/08/24 09:41:44;;;;;;;12.40;5.45;;;26.20;99.90;;;;;;4984102;28;20015;-62
2022/08/24 09:44:39;;;;;;;14.50;5.97;;;26.40;99.90;;;;;;4983434;28;20058;-62
2022/08/24 09:47:23;;;;;;;14.75;5.32;;;26.50;99.90;;;;;;4980977;28;20750;-62
2022/08/24 09:50:07;;;;;;;11.93;4.78;;;26.50;99.90;;;;;;4984178;28;20390;-62
2022/08/24 09:52:51;;;;;;;16.05;4.70;;;26.60;99.90;;;;;;4978309;28;20097;-62
2022/08/24 09:55:16;;;;;;;;;;;26.70;99.90;;;;;;4981244;28;20084;-62
2022/08/24 09:58:07;;;;;;;14.35;4.13;;;27.10;99.90;;;;;;4982908;28;19913;-62
2022/08/24 10:00:47;;;;;;;10.95;3.55;;;26.90;99.90;;;;;;4982207;28;20057;-62
2022/08/24 10:03:27;;;;;;;10.80;3.70;;;27.20;99.90;;;;;;4980263;28;20042;-62
2022/08/24 10:06:35;;;;;;;17.52;4.03;;;27.10;99.90;;;;;;4980405;28;20109;-62
2022/08/24 10:09:18;;;;;;;11.90;3.30;;;27.00;99.90;;;;;;4977516;28;20037;-62
2022/08/24 10:12:12;;;;;;;371.20;325.25;;;27.00;99.90;;;;;;4981999;28;20238;-62
2022/08/24 10:14:57;;;;;;;17.05;6.43;;;27.10;99.90;;;;;;4982647;28;20049;-62
2022/08/24 10:17:23;;;;;;;8.30;3.25;;;27.30;99.90;;;;;;4983016;28;20045;-63
2022/08/24 10:20:04;;;;;;;7.72;2.70;;;27.50;99.90;;;;;;4988022;28;20410;-63
2022/08/24 10:22:56;;;;;;;7.72;2.28;;;27.30;99.90;;;;;;4981446;28;20057;-62
2022/08/24 10:25:59;;;;;;;5.15;2.40;;;27.50;99.90;;;;;;4985063;28;20042;-63
2022/08/24 10:28:56;;;;;;;8.60;2.90;;;27.40;99.90;;;;;;4980803;28;20037;-62
2022/08/24 10:31:58;;;;;;;9.02;2.90;;;27.50;99.90;;;;;;4979918;28;20030;-62
2022/08/24 10:34:43;;;;;;;4.20;2.33;;;27.30;99.90;;;;;;4976108;28;20121;-62
2022/08/24 10:37:39;;;;;;;9.75;2.97;;;27.50;99.90;;;;;;4976972;28;20022;-63
2022/08/24 10:40:26;;;;;;;6.32;2.63;;;27.50;99.90;;;;;;4983657;28;20041;-63
2022/08/24 10:46:04;;;;;;;5.70;2.90;;;27.50;99.90;;;;;;4980312;28;20048;-63
2022/08/24 10:48:29;;;;;;;4.35;2.25;;;27.40;99.90;;;;;;4988885;28;20030;-63
2022/08/24 10:51:09;;;;;;;4.85;2.60;;;27.40;99.90;;;;;;4975942;28;20164;-63
2022/08/24 10:53:35;;;;;;;6.95;2.30;;;27.40;99.90;;;;;;4984024;28;20030;-62
2022/08/24 10:56:14;;;;;;;5.57;2.10;;;27.70;99.90;;;;;;4981999;28;20030;-63
2022/08/24 10:58:44;;;;;;;8.23;2.47;;;;;;;;;;4983818;28;20045;-63
2022/08/24 11:01:15;;;;;;;7.35;2.30;;;;;;;;;;4987072;28;20034;-63
2022/08/24 11:04:00;;;;;;;5.05;2.22;;;;;;;;;;4981345;28;20037;-63
2022/08/24 11:06:33;;;;;;;6.18;2.08;;;27.60;99.90;;;;;;4978748;28;20078;-63
2022/08/24 11:09:02;;;;;;;7.65;2.58;;;;;;;;;;4978007;28;20027;-63
2022/08/24 11:11:33;;;;;;;6.18;2.13;;;;;;;;;;4985659;28;20501;-63
2022/08/24 11:14:21;;;;;;;8.88;2.35;;;28.10;99.90;;;;;;5000392;28;20034;-62
2022/08/24 11:16:47;;;;;;;8.80;2.78;;;;;;;;;;4985250;28;20038;-62
2022/08/24 11:19:32;;;;;;;5.90;2.70;;;28.20;99.90;;;;;;4979280;28;20058;-62
2022/08/24 11:22:04;;;;;;;7.50;2.78;;;28.40;99.90;;;;;;4984775;28;20128;-63
2022/08/24 11:24:58;;;;;;;7.23;2.57;;;28.30;99.90;;;;;;4984597;28;20022;-63
2022/08/24 11:27:34;;;;;;;8.40;3.05;;;28.30;99.90;;;;;;4982408;28;20108;-63
2022/08/24 11:30:24;;;;;;;5.55;2.63;;;28.50;99.90;;;;;;4985167;28;20042;-63
2022/08/24 11:32:56;;;;;;;7.63;2.55;;;28.40;99.90;;;;;;4985021;28;20046;-63
2022/08/24 11:35:31;;;;;;;5.35;2.55;;;28.50;99.90;;;;;;4991150;28;20034;-63
2022/08/24 11:38:14;;;;;;;5.03;2.45;;;28.80;99.90;;;;;;4983818;28;20027;-63
2022/08/24 11:40:42;;;;;;;12.10;2.63;;;28.50;99.90;;;;;;4988589;28;20018;-63
2022/08/24 11:43:27;;;;;;;8.23;2.47;;;29.00;99.90;;;;;;4988730;28;20038;-63
2022/08/24 11:45:59;;;;;;;16.50;5.05;;;28.70;99.90;;;;;;4986330;28;20030;-63
2022/08/24 11:48:32;;;;;;;9.60;2.17;;;;;;;;;;4985817;28;20030;-63
2022/08/24 11:51:05;;;;;;;12.32;4.63;;;29.00;99.90;;;;;;4986422;28;20027;-63
2022/08/24 11:53:58;;;;;;;3.70;1.92;;;28.80;99.90;;;;;;4990950;28;20069;-63
2022/08/24 11:56:37;;;;;;;7.20;2.10;;;;;;;;;;4986544;28;20039;-63
2022/08/24 11:59:23;;;;;;;26.75;19.48;;;29.10;99.90;;;;;;4989675;28;20022;-61
2022/08/24 12:01:54;;;;;;;6.45;2.40;;;;;;;;;;4977628;28;20026;-63
2022/08/24 12:04:53;;;;;;;7.45;2.33;;;28.60;99.90;;;;;;4987032;28;20433;-63
2022/08/24 12:07:25;;;;;;;7.95;3.25;;;28.60;99.90;;;;;;4985362;28;20030;-62
2022/08/24 12:10:15;;;;;;;6.47;2.17;;;28.60;99.90;;;;;;4984340;28;20030;-62
2022/08/24 12:13:02;;;;;;;3.58;1.77;;;28.70;99.90;;;;;;4985204;28;20533;-62
2022/08/24 12:15:53;;;;;;;4.55;2.10;;;28.80;99.90;;;;;;4984315;28;20679;-62
2022/08/24 12:18:27;;;;;;;4.80;1.85;;;28.70;99.90;;;;;;4982980;28;20050;-62
2022/08/24 12:20:54;;;;;;;5.57;2.28;;;28.90;99.90;;;;;;4988182;28;20474;-62
2022/08/24 12:23:37;;;;;;;3.75;1.50;;;28.70;99.90;;;;;;4987647;28;20026;-62
2022/08/24 12:26:12;;;;;;;5.18;1.92;;;28.60;99.90;;;;;;4987019;28;20038;-62
2022/08/24 12:28:47;;;;;;;3.03;1.63;;;28.90;99.90;;;;;;4986221;28;20034;-62
2022/08/24 12:31:44;;;;;;;3.58;1.60;;;28.90;99.90;;;;;;4983075;28;20026;-62
2022/08/24 12:34:18;;;;;;;7.50;1.80;;;28.80;99.90;;;;;;4983295;28;20050;-62
2022/08/24 12:36:54;;;;;;;3.38;1.73;;;28.90;99.90;;;;;;4987293;28;20015;-63
2022/08/24 12:39:28;;;;;;;5.18;2.03;;;29.00;99.90;;;;;;4982718;28;20497;-62
2022/08/24 12:41:59;;;;;;;3.53;1.65;;;28.80;99.90;;;;;;4985134;28;21393;-63
2022/08/24 12:44:37;;;;;;;8.27;2.35;;;29.00;99.90;;;;;;4985278;28;20034;-63
2022/08/24 12:47:03;;;;;;;3.58;1.90;;;28.90;99.90;;;;;;4986146;28;20022;-63
2022/08/24 12:49:44;;;;;;;4.30;1.80;;;28.80;99.90;;;;;;4985926;28;20042;-63
2022/08/24 12:53:04;;;;;;;3.45;1.77;;;28.80;99.90;;;;;;4983717;28;20423;-63
2022/08/24 12:55:47;;;;;;;5.55;2.17;;;29.00;99.90;;;;;;5003142;28;20026;-63
2022/08/24 12:58:49;;;;;;;4.57;2.13;;;28.90;99.90;;;;;;4987705;28;20041;-63
2022/08/24 13:01:16;;;;;;;6.13;2.03;;;28.90;99.90;;;;;;4983116;28;20031;-63
2022/08/24 13:03:44;;;;;;;4.93;1.92;;;28.80;99.90;;;;;;4979216;28;20613;-63
2022/08/24 13:06:42;;;;;;;6.68;1.70;;;28.80;99.90;;;;;;4982028;28;20669;-63
2022/08/24 13:09:30;;;;;;;5.47;1.77;;;28.70;99.90;;;;;;4984447;28;20022;-64
2022/08/24 13:11:58;;;;;;;4.80;1.73;;;28.90;99.90;;;;;;4980782;28;20461;-63
2022/08/24 13:14:27;;;;;;;4.93;1.80;;;28.90;99.90;;;;;;4990040;28;20034;-63
2022/08/24 13:16:55;;;;;;;6.35;1.92;;;28.80;99.90;;;;;;4986370;28;20030;-64
2022/08/24 13:19:33;;;;;;;5.93;2.10;;;28.80;99.90;;;;;;4989426;28;20470;-63
2022/08/24 13:22:11;;;;;;;5.57;1.90;;;28.90;99.90;;;;;;4986014;28;20088;-63
2022/08/24 13:24:56;;;;;;;5.55;2.10;;;28.90;99.90;;;;;;4995269;28;20021;-63